Flight Track Log - Related Links

Times and Time Zones

All times are in EDT time to prevent confusion due to time zone crossing. See the N924AK flight status page for this flight to view local times or setup timezone preferences in your user account.

Time Position Orientation Groundspeed Altitude Reporting Facility
EDT Latitude Longitude Course Direction KTS MPH feet Rate Location/Type
Fri 01:29:29 PM 33.9000 -84.2833 51° Northeast 182 209 2,100  Level Atlanta TRACON
Fri 01:30:23 PM 33.9333 -84.2333 51° Northeast 213 245 3,000 737 Climbing Atlanta TRACON
Fri 01:31:23 PM 33.9000 -84.1667 121° Southeast 211 243 3,500 1,750 Climbing Atlanta TRACON
Fri 01:32:23 PM 33.8500 -84.1167 140° Southeast 229 264 6,500 2,400 Climbing Atlanta TRACON
Fri 01:32:53 PM 33.8233 -84.0889 139° Southeast 258 297 7,100 2,267 Climbing Atlanta Center
Fri 01:33:53 PM 33.7544 -84.1114 195° South 277 319 9,900 1,450 Climbing Atlanta Center
Fri 01:34:53 PM 33.6628 -84.1411 195° South 312 359 10,000 50 Climbing Atlanta Center
Fri 01:35:53 PM 33.5667 -84.1658 192° South 349 402 10,000  Level Atlanta Center
Fri 01:36:53 PM 33.4747 -84.1608 177° South 361 415 10,000  Level Atlanta Center
Fri 01:37:53 PM 33.3767 -84.1508 175° South 361 415 10,000 500 Level Atlanta Center
Fri 01:38:53 PM 33.2767 -84.1406 175° South 363 418 11,000 1,550 Climbing Atlanta Center
Fri 01:39:53 PM 33.1742 -84.1256 173° South 376 433 13,100 2,200 Climbing Atlanta Center
Fri 01:40:53 PM 33.0700 -84.0908 164° South 382 440 15,400 2,300 Climbing Atlanta Center
Fri 01:41:53 PM 32.9656 -84.0561 164° South 387 445 17,700 2,150 Climbing Atlanta Center
Fri 01:42:53 PM 32.8611 -84.0214 164° South 387 445 19,700 2,150 Climbing Atlanta Center
Fri 01:43:53 PM 32.7569 -83.9819 162° South 392 451 22,000 2,050 Climbing Atlanta Center
Fri 01:44:53 PM 32.6400 -83.9450 165° South 397 457 23,800 1,650 Climbing Atlanta Center
Fri 01:45:53 PM 32.5292 -83.9033 162° South 402 463 25,300 1,500 Climbing Atlanta Center
Fri 01:46:53 PM 32.4144 -83.8642 164° South 414 476 26,800 1,348 Climbing Atlanta Center
Fri 01:48:51 PM 32.1800 -83.7836 164° South 438 504 29,300 1,213 Climbing Jacksonville Center
Fri 01:49:51 PM 32.0550 -83.7406 164° South 450 518 30,400 850 Climbing Jacksonville Center
Fri 01:50:51 PM 31.9281 -83.6956 163° South 463 533 31,000 300 Climbing Jacksonville Center
Fri 01:51:51 PM 31.7969 -83.6503 164° South 481 554 31,000  Level Jacksonville Center
Fri 01:52:51 PM 31.6633 -83.6078 165° South 487 560 31,000  Level Jacksonville Center
Fri 01:53:51 PM 31.5406 -83.5631 163° South 506 582 31,000  Level Jacksonville Center
Fri 01:54:51 PM 31.4111 -83.5206 164° South 499 574 31,000  Level Jacksonville Center
Fri 01:55:51 PM 31.2778 -83.4736 163° South 499 574 31,000  Level Jacksonville Center
Fri 01:56:51 PM 31.1508 -83.4047 155° Southeast 499 574 31,000  Level Jacksonville Center
Fri 01:57:51 PM 31.0278 -83.3289 152° Southeast 499 574 31,000 -700 Level Jacksonville Center
Fri 01:58:51 PM 30.9133 -83.2558 151° Southeast 493 567 29,600 -2,100 Descending Jacksonville Center
Fri 01:59:51 PM 30.7881 -83.1803 153° Southeast 466 536 26,800 -2,650 Descending Jacksonville Center
Fri 02:00:51 PM 30.6692 -83.1050 151° Southeast 474 545 24,300 -1,400 Descending Jacksonville Center
Fri 02:01:51 PM 30.5525 -83.0397 154° Southeast 468 539 24,000 -150 Descending Jacksonville Center
Fri 02:02:51 PM 30.4522 -82.9794 153° Southeast 463 533 24,000 -400 Level Jacksonville Center
Fri 02:03:51 PM 30.3439 -82.9119 152° Southeast 458 527 23,200 -1,450 Descending Jacksonville Center
Fri 02:04:51 PM 30.2311 -82.8469 154° Southeast 451 519 21,100 -2,283 Descending Jacksonville Center
Fri 02:05:44 PM 30.1225 -82.7894 155° Southeast 431 496 18,900 -2,056 Descending Jacksonville Center
Fri 02:06:39 PM 30.0325 -82.7319 151° Southeast 428 493 17,400 -1,918 Descending Jacksonville Center
Fri 02:07:46 PM 29.9133 -82.6625 153° Southeast 418 481 15,000 -2,109 Descending Jacksonville Center
Fri 02:08:47 PM 29.8111 -82.6031 153° Southeast 408 470 12,900 -2,016 Descending Jacksonville Center
Fri 02:09:48 PM 29.7150 -82.5458 153° Southeast 394 453 10,900 -1,582 Descending Jacksonville Center
Fri 02:10:37 PM 29.6394 -82.5008 153° Southeast 351 404 10,000 -984 Descending Jacksonville Center
Fri 02:11:50 PM 29.5497 -82.4461 152° Southeast 275 316 8,900 -1,119 Descending Jacksonville Center
Fri 02:12:51 PM 29.4869 -82.4083 152° Southeast 296 341 7,500 -1,500 Descending Jacksonville Center
Fri 02:13:46 PM 29.4158 -82.3800 161° South 270 311 6,000 -1,707 Descending Jacksonville Center
Fri 02:14:47 PM 29.3425 -82.3589 166° South 260 299 4,200 -1,426 Descending Jacksonville Center
Fri 02:15:48 PM 29.2694 -82.3356 164° South 255 293 3,100 -590 Descending Jacksonville Center
Fri 02:16:49 PM 29.2089 -82.3122 161° South 231 266 3,000 -488 Descending Jacksonville Center
Fri 02:17:51 PM 29.1544 -82.2886 159° South 212 244 2,100 -667 Descending Jacksonville Center
Fri 02:19:04 PM 29.1064 -82.2628 155° Southeast 140 161 1,500 -516 Descending Jacksonville Center
Fri 02:19:59 PM 29.1167 -82.2319 69° East 123 142 1,000 -655 Descending Jacksonville Center
Fri 02:20:54 PM 29.1500 -82.2269 North 129 148 300 -764 Descending Jacksonville Center

Login

Don't have an account? Register now (free) for customized features, flight alerts, and more!